Amelia, OH (45102)

12:49 PM EST on February 10, 2016 (GMT -0500)
Scyamore Creek | | Change Station
CLOSE
Current Station
Personal Weather Station
Location: Amelia, OH
Elevation: 879 ft
Nearby Weather Stations

Elev 879 ft 39.05 °N, 84.23 °W | Updated 14 minutes ago

Snow
Snow
20.7 °F
Feels Like 15 °F
N
3.7
Wind Variable Wind from West

Today
High -- | Low -- °F
--% Chance of Precip.
Yesterday
High -- | Low -- °F
Precip. -- in
Pressure 30.02 in
Visibility 4.0 miles
Clouds Mostly Cloudy 1800 ft
Mostly Cloudy 2400 ft
Overcast 3100 ft
Windchill 15 °F
Dew Point 17 °F
Humidity 84%
Rainfall 0.00 in
Snow Depth Not available.
7:34 AM 6:08 PM
Waxing Crescent, 6% visible
METAR KI69 101737Z AUTO 25011G16KT 4SM -SN BKN018 BKN024 OVC031 M08/M12 A3002 RMK AO2 T10771116
Pressure 30.02 in
Visibility 4.0 miles
Clouds Mostly Cloudy 1800 ft
Mostly Cloudy 2400 ft
Overcast 3100 ft
Windchill 15 °F
Dew Point 17 °F
Humidity 84%
Rainfall 0.00 in
Snow Depth Not available.
7:34 AM 6:08 PM
Waxing Crescent, 6% visible
METAR KI69 101737Z AUTO 25011G16KT 4SM -SN BKN018 BKN024 OVC031 M08/M12 A3002 RMK AO2 T10771116

10-Day Weather Forecast

Almanac

Astronomy

Feb. 10, 2016 Rise Set
Actual Time
Civil Twilight
Nautical Twilight
Astronomical Twilight
Moon
Length of Visible Light
Length of Day
Tomorrow will be .
, % of the Moon is Illuminated

Today's Extremes

State Highs State Lows

Community

WunderPhotos

Upload Photos

1,891,899 photos uploaded!

WunderBlog® & News

Nearby

Air Quality

  Air Quality AQ Index Pollutant
Not available.

Snow Depth

Station Depth Elevation

Earthquake Activity

City Distance Mag. Time & Date
Minimum magnitude displayed is 2.5.

Coastal Water Temperatures

Place Temperature

Stations

Nearby Weather Stations

Station Location Temp. Windchill Dew Point Humidity Wind Precip. Elev Updated Type
                   

Watches & Warnings

There are currently no watches in effect.